Time;durP1;ratioP1;P1;durP2;ratioP2;P2;SDS_P1;SDS_P2;PMS_P1;PMS_P2;Temp;Humidity;BMP_temperature;BMP_pressure;BME280_temperature;BME280_humidity;BME280_pressure;Samples;Min_cycle;Max_cycle;Signal;HPM_P1;HPM_P2
2022/08/06 00:03:19;;;;;;;6.78;1.30;;;17.60;99.90;;;;;;6313391;28;20286;-68
2022/08/06 00:06:27;;;;;;;1.27;1.13;;;17.50;99.90;;;;;;6314280;28;20277;-68
2022/08/06 00:09:34;;;;;;;1.20;1.13;;;17.50;99.90;;;;;;6313999;28;20318;-68
2022/08/06 00:12:59;;;;;;;1.70;1.00;;;17.30;99.90;;;;;;6313964;28;20433;-68
2022/08/06 00:16:10;;;;;;;2.38;1.00;;;17.30;99.90;;;;;;6313923;28;20270;-68
2022/08/06 00:19:36;;;;;;;2.53;1.10;;;17.20;99.90;;;;;;6313650;28;20310;-68
2022/08/06 00:22:53;;;;;;;1.55;1.00;;;17.10;99.90;;;;;;6313569;28;20397;-68
2022/08/06 00:25:58;;;;;;;1.60;1.15;;;17.00;99.90;;;;;;6314162;28;20266;-68
2022/08/06 00:29:06;;;;;;;4.78;1.40;;;17.00;99.90;;;;;;6313860;28;20282;-68
2022/08/06 00:32:30;;;;;;;1.25;1.20;;;17.00;99.90;;;;;;6313979;28;20278;-68
2022/08/06 00:35:35;;;;;;;1.15;1.00;;;16.90;99.90;;;;;;6313662;28;20601;-68
2022/08/06 00:38:44;;;;;;;1.50;1.10;;;16.90;99.90;;;;;;6313001;28;20297;-68
2022/08/06 00:42:06;;;;;;;2.42;1.30;;;16.90;99.90;;;;;;6313109;28;20295;-68
2022/08/06 00:45:32;;;;;;;1.52;1.05;;;16.80;99.90;;;;;;6313259;28;20290;-67
2022/08/06 00:48:42;;;;;;;1.45;1.17;;;16.80;99.90;;;;;;6313348;28;20290;-68
2022/08/06 00:51:58;;;;;;;0.93;0.93;;;16.40;99.90;;;;;;6313201;28;20278;-68
2022/08/06 00:55:06;;;;;;;3.67;1.42;;;16.50;99.90;;;;;;6313075;28;20290;-68
2022/08/06 00:58:22;;;;;;;2.03;1.27;;;16.50;99.90;;;;;;6313191;28;20298;-68
2022/08/06 01:01:31;;;;;;;1.25;1.20;;;16.50;99.90;;;;;;6312706;28;20441;-68
2022/08/06 01:04:55;;;;;;;5.25;1.20;;;16.60;99.90;;;;;;6312605;28;20311;-68
2022/08/06 01:08:22;;;;;;;8.15;1.10;;;16.60;99.90;;;;;;6312574;28;20290;-68
2022/08/06 01:11:30;;;;;;;1.00;1.00;;;16.50;99.90;;;;;;6312825;28;20262;-68
2022/08/06 01:14:55;;;;;;;1.20;1.20;;;16.60;99.90;;;;;;6312740;28;20314;-68
2022/08/06 01:18:28;;;;;;;2.00;1.20;;;16.50;99.90;;;;;;6312039;28;20302;-68
2022/08/06 01:21:51;;;;;;;3.75;1.05;;;16.40;99.90;;;;;;6313047;28;20266;-68
2022/08/06 01:26:18;;;;;;;3.33;1.02;;;16.40;99.90;;;;;;6312290;28;20298;-68
2022/08/06 01:29:31;;;;;;;2.17;1.10;;;16.30;99.90;;;;;;6304729;28;20294;-68
2022/08/06 01:33:07;;;;;;;5.10;1.10;;;16.30;99.90;;;;;;6311715;28;20278;-68
2022/08/06 01:36:28;;;;;;;1.00;1.00;;;16.20;99.90;;;;;;6312146;28;20274;-68
2022/08/06 01:39:36;;;;;;;1.23;1.13;;;16.20;99.90;;;;;;6311595;28;20299;-68
2022/08/06 01:43:04;;;;;;;5.07;1.30;;;16.20;99.90;;;;;;6311344;28;20294;-68
2022/08/06 01:46:29;;;;;;;2.83;1.17;;;16.10;99.90;;;;;;6312202;28;20270;-68
2022/08/06 01:49:38;;;;;;;2.08;1.30;;;16.10;99.90;;;;;;6311520;28;20618;-68
2022/08/06 01:53:05;;;;;;;1.23;1.10;;;16.00;99.90;;;;;;6311434;28;20274;-68
2022/08/06 01:56:22;;;;;;;2.08;1.10;;;16.00;99.90;;;;;;6312090;28;20271;-68
2022/08/06 01:59:53;;;;;;;8.65;1.70;;;15.90;99.90;;;;;;6311444;28;20298;-68
2022/08/06 02:03:12;;;;;;;1.60;1.08;;;15.90;99.90;;;;;;6310843;28;20293;-68
2022/08/06 02:06:28;;;;;;;6.47;1.10;;;15.80;99.90;;;;;;6311225;28;20558;-68
2022/08/06 02:09:35;;;;;;;2.75;1.10;;;15.90;99.90;;;;;;6311112;28;20294;-68
2022/08/06 02:12:46;;;;;;;3.95;1.27;;;15.80;99.90;;;;;;6311712;28;20299;-68
2022/08/06 02:15:53;;;;;;;3.85;1.20;;;15.80;99.90;;;;;;6309977;28;20467;-68
2022/08/06 02:19:07;;;;;;;1.33;1.20;;;15.80;99.90;;;;;;6310757;28;20290;-68
2022/08/06 02:22:20;;;;;;;1.00;1.00;;;15.80;99.90;;;;;;6311450;28;20271;-68
2022/08/06 02:25:31;;;;;;;1.42;1.20;;;15.80;99.90;;;;;;6310939;28;20303;-67
2022/08/06 02:28:41;;;;;;;1.25;1.20;;;15.70;99.90;;;;;;6310992;28;20294;-68
2022/08/06 02:31:46;;;;;;;2.45;1.30;;;15.70;99.90;;;;;;6311465;28;20275;-67
2022/08/06 02:34:58;;;;;;;1.20;1.17;;;15.60;99.90;;;;;;6310746;28;20601;-68
2022/08/06 02:38:10;;;;;;;1.33;1.23;;;15.60;99.90;;;;;;6310260;28;20275;-68
2022/08/06 02:41:22;;;;;;;3.90;1.73;;;15.40;99.90;;;;;;6311142;28;20267;-68
2022/08/06 02:44:40;;;;;;;6.03;1.35;;;15.40;99.90;;;;;;6310273;28;20298;-68
2022/08/06 02:47:56;;;;;;;2.67;1.30;;;15.50;99.90;;;;;;6310481;28;20399;-68
2022/08/06 02:51:15;;;;;;;1.65;1.20;;;15.40;99.90;;;;;;6311020;28;20254;-68
2022/08/06 02:54:47;;;;;;;1.48;1.25;;;15.40;99.90;;;;;;6310411;28;20302;-67
2022/08/06 02:57:57;;;;;;;2.13;1.38;;;15.40;99.90;;;;;;6310588;28;20275;-68
2022/08/06 03:01:09;;;;;;;5.25;1.45;;;15.40;99.90;;;;;;6310507;28;20275;-67
2022/08/06 03:04:16;;;;;;;2.92;1.30;;;15.20;99.90;;;;;;6308771;28;20298;-68
2022/08/06 03:07:28;;;;;;;1.95;1.30;;;15.20;99.90;;;;;;6310638;28;20263;-67
2022/08/06 03:10:36;;;;;;;3.22;1.35;;;15.30;99.90;;;;;;6310088;28;20299;-68
2022/08/06 03:13:43;;;;;;;4.88;1.30;;;15.30;99.90;;;;;;6285179;28;20294;-67
2022/08/06 03:16:50;;;;;;;4.38;1.40;;;15.30;99.90;;;;;;6285489;28;20587;-67
2022/08/06 03:19:56;;;;;;;1.75;1.27;;;15.30;99.90;;;;;;6291791;28;20419;-68
2022/08/06 03:23:08;;;;;;;2.22;1.40;;;15.40;99.90;;;;;;6309581;28;20266;-68
2022/08/06 03:26:14;;;;;;;2.72;1.30;;;15.40;99.90;;;;;;6312773;28;20290;-68
2022/08/06 03:29:24;;;;;;;2.20;1.35;;;15.20;99.90;;;;;;6315100;28;20482;-68
2022/08/06 03:32:30;;;;;;;6.25;1.65;;;15.30;99.90;;;;;;6314982;28;20267;-68
2022/08/06 03:35:57;;;;;;;3.08;1.45;;;15.20;99.90;;;;;;6313908;28;20275;-68
2022/08/06 03:39:09;;;;;;;6.72;1.40;;;15.30;99.90;;;;;;6314584;28;20294;-68
2022/08/06 03:42:25;;;;;;;2.22;1.40;;;15.20;99.90;;;;;;6314865;28;20369;-68
2022/08/06 03:45:50;;;;;;;2.08;1.40;;;15.30;99.90;;;;;;6314092;28;20362;-68
2022/08/06 03:49:05;;;;;;;1.33;1.33;;;15.30;99.90;;;;;;6314499;28;20290;-67
2022/08/06 03:52:17;;;;;;;2.53;1.40;;;15.40;99.90;;;;;;6314545;28;20270;-67
2022/08/06 03:55:32;;;;;;;2.30;1.48;;;15.20;99.90;;;;;;6314377;28;20306;-67
2022/08/06 03:58:41;;;;;;;1.40;1.20;;;15.20;99.90;;;;;;6314052;28;20290;-67
2022/08/06 04:01:48;;;;;;;5.85;1.65;;;15.20;99.90;;;;;;6314544;28;20270;-67
2022/08/06 04:04:55;;;;;;;2.22;1.55;;;15.20;99.90;;;;;;6314012;28;20294;-67
2022/08/06 04:08:04;;;;;;;1.60;1.50;;;15.20;99.90;;;;;;6313605;28;20270;-67
2022/08/06 04:11:15;;;;;;;3.05;1.60;;;15.30;99.90;;;;;;6313883;28;20262;-67
2022/08/06 04:14:40;;;;;;;3.08;1.63;;;15.30;99.90;;;;;;6313716;28;20298;-67
2022/08/06 04:17:52;;;;;;;4.15;1.63;;;15.30;99.90;;;;;;6314359;28;20266;-67
2022/08/06 04:21:04;;;;;;;2.53;1.50;;;15.30;99.90;;;;;;6313373;28;20561;-68
2022/08/06 04:24:29;;;;;;;2.13;1.60;;;15.40;99.90;;;;;;6313518;28;20592;-67
2022/08/06 04:27:39;;;;;;;3.35;1.63;;;15.40;99.90;;;;;;6314371;28;20270;-68
2022/08/06 04:30:59;;;;;;;6.03;1.63;;;15.20;99.90;;;;;;6313599;28;20275;-68
2022/08/06 04:34:05;;;;;;;1.65;1.55;;;15.30;99.90;;;;;;6313323;28;20294;-68
2022/08/06 04:37:16;;;;;;;2.45;1.50;;;15.30;99.90;;;;;;6312926;28;20274;-68
2022/08/06 04:40:26;;;;;;;4.45;1.58;;;15.30;99.90;;;;;;6313540;28;20302;-68
2022/08/06 04:43:47;;;;;;;4.28;1.55;;;15.40;99.90;;;;;;6312215;28;20290;-68
2022/08/06 04:46:59;;;;;;;4.13;1.70;;;15.40;99.90;;;;;;6313517;28;20294;-68
2022/08/06 04:50:07;;;;;;;1.85;1.55;;;15.40;99.90;;;;;;6312964;28;20301;-67
2022/08/06 04:53:16;;;;;;;3.13;1.70;;;15.40;99.90;;;;;;6313001;28;20294;-68
2022/08/06 04:56:42;;;;;;;5.90;1.90;;;15.50;99.90;;;;;;6313277;28;20282;-67
2022/08/06 04:59:55;;;;;;;3.60;2.53;;;15.40;99.90;;;;;;6312992;28;20294;-68
2022/08/06 05:03:02;;;;;;;4.13;1.55;;;15.50;99.90;;;;;;6312630;28;20274;-67
2022/08/06 05:06:13;;;;;;;1.77;1.55;;;15.30;99.90;;;;;;6312519;28;20298;-67
2022/08/06 05:09:23;;;;;;;2.92;2.08;;;15.50;99.90;;;;;;6312847;28;20476;-68
2022/08/06 05:12:52;;;;;;;5.15;1.77;;;15.50;99.90;;;;;;6313263;28;20263;-67
2022/08/06 05:16:03;;;;;;;4.30;1.98;;;15.60;99.90;;;;;;6311712;28;20279;-68
2022/08/06 05:19:19;;;;;;;5.18;1.60;;;15.70;99.90;;;;;;6312055;28;20294;-67
2022/08/06 05:22:28;;;;;;;5.68;1.65;;;15.80;99.90;;;;;;6312412;28;20461;-67
2022/08/06 05:25:54;;;;;;;5.53;1.75;;;15.90;99.90;;;;;;6311875;28;20294;-68
2022/08/06 05:29:01;;;;;;;6.10;1.75;;;16.00;99.90;;;;;;6312429;28;20294;-68
2022/08/06 05:32:08;;;;;;;3.28;1.73;;;16.00;99.90;;;;;;6312762;28;20279;-68
2022/08/06 05:35:14;;;;;;;3.55;1.88;;;16.00;99.90;;;;;;6312211;28;20298;-67
2022/08/06 05:38:23;;;;;;;4.78;1.70;;;15.90;99.90;;;;;;6312026;28;20301;-68
2022/08/06 05:41:41;;;;;;;2.03;1.73;;;16.00;99.90;;;;;;6312603;28;20270;-67
2022/08/06 05:44:46;;;;;;;7.10;1.70;;;15.90;99.90;;;;;;6311420;28;20294;-67
2022/08/06 05:47:54;;;;;;;4.32;2.00;;;16.00;99.90;;;;;;6311709;28;20294;-68
2022/08/06 05:51:08;;;;;;;5.43;1.63;;;16.20;99.90;;;;;;6312039;28;20271;-67
2022/08/06 05:54:23;;;;;;;1.85;1.40;;;16.20;99.90;;;;;;6311301;28;20299;-67
2022/08/06 05:57:34;;;;;;;7.55;2.05;;;16.40;99.90;;;;;;6311815;28;20274;-68
2022/08/06 06:00:46;;;;;;;8.27;1.65;;;16.40;99.90;;;;;;6311398;28;20295;-68
2022/08/06 06:04:01;;;;;;;7.22;1.85;;;16.40;99.90;;;;;;6311005;28;20447;-67
2022/08/06 06:07:09;;;;;;;5.57;1.83;;;16.50;99.90;;;;;;6311762;28;20290;-68
2022/08/06 06:10:34;;;;;;;3.40;1.90;;;16.60;99.90;;;;;;6311229;28;20475;-68
2022/08/06 06:13:42;;;;;;;8.25;2.15;;;16.60;99.90;;;;;;6310797;28;20295;-68
2022/08/06 06:17:36;;;;;;;4.05;1.70;;;16.70;99.90;;;;;;6311672;28;20550;-68
2022/08/06 06:20:52;;;;;;;4.03;1.83;;;16.60;99.90;;;;;;6311236;28;20480;-68
2022/08/06 06:24:32;;;;;;;5.72;2.00;;;16.50;99.90;;;;;;6309787;28;20294;-68
2022/08/06 06:28:01;;;;;;;4.85;2.13;;;16.50;99.90;;;;;;6309993;28;20561;-68
2022/08/06 06:31:19;;;;;;;4.07;2.10;;;16.60;99.90;;;;;;6311663;28;20522;-67
2022/08/06 06:34:52;;;;;;;4.47;1.60;;;16.70;99.90;;;;;;6310610;28;20294;-67
2022/08/06 06:38:24;;;;;;;3.95;1.63;;;16.80;99.90;;;;;;6310200;28;20270;-67
2022/08/06 06:41:36;;;;;;;2.42;1.60;;;16.80;99.90;;;;;;6311128;28;20434;-68
2022/08/06 06:44:54;;;;;;;7.55;2.13;;;16.80;99.90;;;;;;6310335;28;20298;-67
2022/08/06 06:48:26;;;;;;;4.70;2.13;;;17.00;99.90;;;;;;6310373;28;20483;-67
2022/08/06 06:51:42;;;;;;;2.13;1.92;;;17.10;99.90;;;;;;6310975;28;20278;-67
2022/08/06 06:55:12;;;;;;;6.82;2.10;;;17.10;99.90;;;;;;6309877;28;20593;-68
2022/08/06 06:58:41;;;;;;;6.53;1.98;;;17.20;99.90;;;;;;6310106;28;20486;-68
2022/08/06 07:01:51;;;;;;;4.53;1.70;;;17.20;99.90;;;;;;6317276;28;20266;-68
2022/08/06 07:05:02;;;;;;;2.03;1.77;;;17.30;99.90;;;;;;6318526;28;20294;-67
2022/08/06 07:08:11;;;;;;;4.38;1.88;;;17.50;99.90;;;;;;6318625;28;20289;-69
2022/08/06 07:11:27;;;;;;;3.63;1.60;;;17.70;99.90;;;;;;6318849;28;20262;-68
2022/08/06 07:14:56;;;;;;;5.75;1.90;;;17.90;99.90;;;;;;6318354;28;20609;-67
2022/08/06 07:18:09;;;;;;;3.00;1.70;;;18.00;99.90;;;;;;6317974;28;20274;-67
2022/08/06 07:21:36;;;;;;;4.13;1.92;;;18.10;99.90;;;;;;6318921;28;20266;-68
2022/08/06 07:24:42;;;;;;;5.13;2.10;;;18.10;99.90;;;;;;6318036;28;20494;-67
2022/08/06 07:27:53;;;;;;;8.23;1.80;;;18.20;99.90;;;;;;6318555;28;20302;-68
2022/08/06 07:31:04;;;;;;;4.03;1.75;;;18.00;99.90;;;;;;6317655;28;20274;-68
2022/08/06 07:34:19;;;;;;;4.38;1.50;;;18.10;99.90;;;;;;6317814;28;20298;-67
2022/08/06 07:37:51;;;;;;;3.55;1.58;;;18.20;99.90;;;;;;6318594;28;20278;-68
2022/08/06 07:41:02;;;;;;;3.50;1.77;;;18.30;99.90;;;;;;6317664;28;20270;-68
2022/08/06 07:44:16;;;;;;;4.35;1.73;;;18.40;99.90;;;;;;6317807;28;20298;-68
2022/08/06 07:47:30;;;;;;;2.30;1.30;;;18.50;99.90;;;;;;6318601;28;20294;-68
2022/08/06 07:50:51;;;;;;;3.00;1.40;;;18.60;99.90;;;;;;6317968;28;20299;-68
2022/08/06 07:53:58;;;;;;;3.53;1.50;;;18.60;99.90;;;;;;6317609;28;20295;-68
2022/08/06 07:57:38;;;;;;;3.58;1.55;;;18.70;99.90;;;;;;6317602;28;20199;-67
2022/08/06 08:01:09;;;;;;;3.10;1.40;;;18.80;99.90;;;;;;6317189;28;20468;-67
2022/08/06 08:08:10;;;;;;;3.40;1.25;;;18.90;99.90;;;;;;6317280;28;20304;-68
2022/08/06 08:11:19;;;;;;;5.28;1.60;;;18.90;99.90;;;;;;6316855;28;20266;-68
2022/08/06 08:14:45;;;;;;;4.63;1.30;;;18.90;99.90;;;;;;6313453;28;20298;-68
2022/08/06 08:17:55;;;;;;;3.80;1.23;;;18.90;99.90;;;;;;6313685;28;20271;-68
2022/08/06 08:21:03;;;;;;;2.30;1.50;;;18.90;99.90;;;;;;6314153;28;20275;-68
2022/08/06 08:24:10;;;;;;;2.65;1.15;;;18.90;99.90;;;;;;6313478;28;20585;-69
2022/08/06 08:27:18;;;;;;;2.50;1.10;;;18.90;99.90;;;;;;6313895;28;20290;-68
2022/08/06 08:30:58;;;;;;;8.80;1.10;;;19.00;99.90;;;;;;6312643;28;20295;-68
2022/08/06 08:34:15;;;;;;;2.63;1.17;;;19.00;99.90;;;;;;6313298;28;20294;-68
2022/08/06 08:37:50;;;;;;;1.20;1.10;;;19.00;99.90;;;;;;6313325;28;20274;-69
2022/08/06 08:41:01;;;;;;;3.03;1.00;;;19.00;99.90;;;;;;6312440;28;20286;-68
2022/08/06 08:44:09;;;;;;;1.45;1.10;;;19.00;98.80;;;;;;6312922;28;20471;-68
2022/08/06 08:47:19;;;;;;;2.45;0.98;;;18.90;99.20;;;;;;6313061;28;20451;-67
2022/08/06 08:50:45;;;;;;;1.25;1.15;;;19.00;99.60;;;;;;6312867;28;20303;-67
2022/08/06 08:54:24;;;;;;;1.75;0.90;;;19.00;99.60;;;;;;6312511;28;20464;-67
2022/08/06 08:57:51;;;;;;;2.30;1.05;;;19.10;98.20;;;;;;6312424;28;20282;-68
2022/08/06 09:01:17;;;;;;;3.72;1.00;;;19.10;98.80;;;;;;6311829;28;20291;-68
2022/08/06 09:04:43;;;;;;;2.95;0.98;;;19.10;98.80;;;;;;6312471;28;20290;-68
2022/08/06 09:07:53;;;;;;;2.67;1.00;;;19.20;98.00;;;;;;6312809;28;20274;-69
2022/08/06 09:11:06;;;;;;;4.95;1.05;;;19.30;97.40;;;;;;6311553;28;20578;-69
2022/08/06 09:14:32;;;;;;;3.00;1.15;;;19.30;97.80;;;;;;6312134;28;20307;-67
2022/08/06 09:17:38;;;;;;;1.00;0.90;;;19.40;97.50;;;;;;6312547;28;20341;-67
2022/08/06 09:21:03;;;;;;;3.83;0.98;;;19.40;97.10;;;;;;6312008;28;20283;-67
2022/08/06 09:24:12;;;;;;;2.05;0.80;;;19.50;97.10;;;;;;6311768;28;20298;-67
2022/08/06 09:27:20;;;;;;;3.03;1.10;;;19.60;97.10;;;;;;6312013;28;20270;-68
2022/08/06 09:30:59;;;;;;;1.13;0.93;;;19.70;97.50;;;;;;6311620;28;20298;-69
2022/08/06 09:34:07;;;;;;;0.80;0.80;;;19.70;95.50;;;;;;6311813;28;20318;-69
2022/08/06 09:37:32;;;;;;;4.97;0.90;;;19.70;96.30;;;;;;6312276;28;20300;-69
2022/08/06 09:41:07;;;;;;;2.53;2.42;;;19.80;95.70;;;;;;6311325;28;20274;-68
2022/08/06 09:44:19;;;;;;;12.93;1.30;;;19.80;96.20;;;;;;6311505;28;20295;-68
2022/08/06 09:47:42;;;;;;;1.20;0.80;;;19.90;94.80;;;;;;6311998;28;20270;-68
2022/08/06 09:51:02;;;;;;;0.70;0.70;;;19.90;94.90;;;;;;6310729;28;20303;-68
2022/08/06 09:54:12;;;;;;;0.70;0.70;;;19.80;92.80;;;;;;6311277;28;20298;-67
2022/08/06 09:57:43;;;;;;;0.80;0.80;;;19.90;92.60;;;;;;6311323;28;20276;-68
2022/08/06 10:00:50;;;;;;;1.58;0.63;;;19.80;92.40;;;;;;6311329;28;20302;-68
2022/08/06 10:03:58;;;;;;;1.60;0.68;;;19.70;91.30;;;;;;6310829;28;20286;-69
2022/08/06 10:07:16;;;;;;;3.22;0.60;;;19.70;91.60;;;;;;6311622;28;20270;-67
2022/08/06 10:10:44;;;;;;;0.68;0.68;;;19.50;91.30;;;;;;6310745;28;20298;-68
2022/08/06 10:13:55;;;;;;;1.55;0.50;;;19.50;91.00;;;;;;6310890;28;20302;-68
2022/08/06 10:17:07;;;;;;;2.30;0.82;;;19.40;91.60;;;;;;6311432;28;20570;-67
2022/08/06 10:20:17;;;;;;;0.75;0.75;;;19.40;91.50;;;;;;6310491;28;20298;-68
2022/08/06 10:23:23;;;;;;;4.40;0.50;;;19.50;91.50;;;;;;6310438;28;20589;-67
2022/08/06 10:26:32;;;;;;;0.45;0.45;;;19.50;91.50;;;;;;6311392;28;20275;-68
2022/08/06 10:29:42;;;;;;;8.05;0.88;;;19.60;91.10;;;;;;6310237;28;20306;-68
2022/08/06 10:32:53;;;;;;;0.82;0.82;;;19.60;91.10;;;;;;6309581;28;20565;-68
2022/08/06 10:36:10;;;;;;;0.80;0.80;;;19.60;92.00;;;;;;6309297;28;20274;-67
2022/08/06 10:39:23;;;;;;;1.88;0.60;;;19.60;91.20;;;;;;6310197;28;20294;-68
2022/08/06 10:42:48;;;;;;;0.70;0.47;;;19.60;90.50;;;;;;6310516;28;20298;-68
2022/08/06 10:45:57;;;;;;;0.60;0.60;;;19.60;90.70;;;;;;6310148;28;20278;-68
2022/08/06 10:49:02;;;;;;;0.57;0.57;;;19.70;94.20;;;;;;6310255;28;20295;-68
2022/08/06 10:52:28;;;;;;;0.60;0.60;;;19.80;94.70;;;;;;6310825;28;20451;-68
2022/08/06 10:55:33;;;;;;;0.70;0.70;;;19.80;93.90;;;;;;6310235;28;20290;-69
2022/08/06 10:58:48;;;;;;;0.68;0.68;;;19.80;95.00;;;;;;6310040;28;20614;-68
2022/08/06 11:02:02;;;;;;;0.73;0.73;;;19.90;94.80;;;;;;6309836;28;20483;-67
2022/08/06 11:05:13;;;;;;;0.75;0.75;;;20.00;94.30;;;;;;6310184;28;20291;-69
2022/08/06 11:08:43;;;;;;;0.90;0.90;;;19.90;93.90;;;;;;6310419;28;20295;-69
2022/08/06 11:12:18;;;;;;;2.08;1.00;;;20.10;94.10;;;;;;6310466;28;20291;-68
2022/08/06 11:15:23;;;;;;;0.70;0.70;;;20.20;94.90;;;;;;6310174;28;20473;-69
2022/08/06 11:18:35;;;;;;;0.82;0.70;;;20.20;94.40;;;;;;6310206;28;20597;-68
2022/08/06 11:21:43;;;;;;;3.60;0.60;;;20.20;94.00;;;;;;6310164;28;20290;-69
2022/08/06 11:25:09;;;;;;;1.13;0.70;;;20.20;94.10;;;;;;6310089;28;20328;-69
2022/08/06 11:29:00;;;;;;;1.95;0.63;;;20.30;93.80;;;;;;6309768;28;20311;-69
2022/08/06 11:32:52;;;;;;;1.80;0.80;;;20.30;94.70;;;;;;6310364;28;20298;-69
2022/08/06 11:35:58;;;;;;;0.95;0.95;;;20.30;93.70;;;;;;6291113;28;20275;-69
2022/08/06 11:39:05;;;;;;;1.55;0.73;;;20.40;95.20;;;;;;6310063;28;20578;-69
2022/08/06 11:42:42;;;;;;;1.35;0.60;;;20.50;93.90;;;;;;6309805;28;20279;-68
2022/08/06 11:46:22;;;;;;;2.15;0.70;;;20.60;93.80;;;;;;6284685;28;20267;-69
2022/08/06 11:49:42;;;;;;;0.80;0.80;;;20.70;94.40;;;;;;6274388;28;20616;-69
2022/08/06 11:52:51;;;;;;;2.13;0.70;;;20.80;93.60;;;;;;6265086;28;20287;-68
2022/08/06 11:56:06;;;;;;;0.73;0.70;;;20.90;93.40;;;;;;6264101;28;20281;-68
2022/08/06 11:59:16;;;;;;;2.35;0.70;;;20.80;93.60;;;;;;6264388;28;20296;-67
2022/08/06 12:02:58;;;;;;;0.65;0.65;;;20.60;93.60;;;;;;6263352;28;20275;-67
2022/08/06 12:06:23;;;;;;;0.80;0.80;;;20.40;94.40;;;;;;6263707;28;20583;-67
2022/08/06 12:09:37;;;;;;;1.27;1.20;;;20.40;94.20;;;;;;6264355;28;20295;-68
2022/08/06 12:12:46;;;;;;;1.95;0.95;;;20.40;94.70;;;;;;6264400;28;20295;-67
2022/08/06 12:15:54;;;;;;;0.80;0.80;;;20.40;94.20;;;;;;6264062;28;20276;-67
2022/08/06 12:19:17;;;;;;;0.60;0.60;;;20.30;94.20;;;;;;6275953;28;20322;-68
2022/08/06 12:22:24;;;;;;;1.08;0.80;;;20.60;94.00;;;;;;6289331;28;20279;-67
2022/08/06 12:25:38;;;;;;;0.95;0.80;;;20.70;94.40;;;;;;6288336;28;20477;-67
2022/08/06 12:28:45;;;;;;;0.65;0.65;;;20.70;93.40;;;;;;6288176;28;20295;-68
2022/08/06 12:31:50;;;;;;;1.00;1.00;;;20.70;93.30;;;;;;6288946;28;20443;-68
2022/08/06 12:34:57;;;;;;;0.70;0.70;;;20.50;94.00;;;;;;6288340;28;20299;-68
2022/08/06 12:38:04;;;;;;;0.70;0.70;;;20.40;93.70;;;;;;6287071;28;20271;-67
2022/08/06 12:41:13;;;;;;;2.50;1.10;;;20.50;95.20;;;;;;6288191;28;20277;-67
2022/08/06 12:44:38;;;;;;;0.80;0.80;;;20.50;94.60;;;;;;6303155;28;20504;-67
2022/08/06 12:48:04;;;;;;;1.10;1.10;;;20.50;95.10;;;;;;6312885;28;20270;-68
2022/08/06 12:51:15;;;;;;;2.30;0.93;;;20.40;94.50;;;;;;6311509;28;20295;-68
2022/08/06 12:54:29;;;;;;;1.98;0.80;;;20.50;95.30;;;;;;6312949;28;20290;-68
2022/08/06 12:57:37;;;;;;;0.82;0.70;;;20.70;94.50;;;;;;6312726;28;20554;-68
2022/08/06 13:01:04;;;;;;;0.60;0.60;;;20.90;93.70;;;;;;6311898;28;20574;-69
2022/08/06 13:04:13;;;;;;;0.80;0.80;;;20.80;93.60;;;;;;6311466;28;20290;-69
2022/08/06 13:07:21;;;;;;;0.63;0.63;;;20.30;91.40;;;;;;6313097;28;20594;-69
2022/08/06 13:10:28;;;;;;;1.02;1.02;;;19.90;91.30;;;;;;6312495;28;20299;-69
2022/08/06 13:13:43;;;;;;;1.10;1.10;;;19.70;91.40;;;;;;6311607;28;20484;-69
2022/08/06 13:17:13;;;;;;;0.93;0.93;;;19.80;91.30;;;;;;6312568;28;20266;-68
2022/08/06 13:20:40;;;;;;;0.60;0.60;;;19.90;92.30;;;;;;6312511;28;20298;-68
2022/08/06 13:23:49;;;;;;;0.63;0.63;;;20.00;90.70;;;;;;6312227;28;20294;-69
2022/08/06 13:26:56;;;;;;;0.90;0.90;;;20.10;90.70;;;;;;6312581;28;20271;-68
2022/08/06 13:30:08;;;;;;;0.75;0.75;;;20.20;89.60;;;;;;6311832;28;20294;-68
2022/08/06 13:33:33;;;;;;;1.58;0.80;;;20.10;86.70;;;;;;6311555;28;20293;-69
2022/08/06 13:36:57;;;;;;;0.70;0.70;;;20.10;87.60;;;;;;6312283;28;20275;-69
2022/08/06 13:40:05;;;;;;;0.50;0.50;;;20.30;90.60;;;;;;6312080;28;20298;-68
2022/08/06 13:43:15;;;;;;;1.67;0.70;;;20.40;91.80;;;;;;6311745;28;20295;-69
2022/08/06 13:46:45;;;;;;;4.85;1.00;;;20.50;90.30;;;;;;6311698;28;20270;-68
2022/08/06 13:49:55;;;;;;;1.30;1.30;;;20.60;90.50;;;;;;6311445;28;20301;-69
2022/08/06 13:53:09;;;;;;;0.93;0.93;;;20.40;87.70;;;;;;6310860;28;20290;-67
2022/08/06 13:56:17;;;;;;;0.80;0.80;;;20.50;89.80;;;;;;6312073;28;20290;-68
2022/08/06 13:59:35;;;;;;;1.42;0.80;;;20.60;90.00;;;;;;6311605;28;20610;-68
2022/08/06 14:02:48;;;;;;;0.77;0.77;;;20.80;90.30;;;;;;6311245;28;20279;-68
2022/08/06 14:05:53;;;;;;;0.90;0.90;;;21.00;90.50;;;;;;6310658;28;20290;-68
2022/08/06 14:09:03;;;;;;;1.05;0.70;;;21.60;87.50;;;;;;6310435;28;20313;-68
2022/08/06 14:12:25;;;;;;;0.80;0.80;;;21.70;86.50;;;;;;6310958;28;20502;-68
2022/08/06 14:15:34;;;;;;;1.02;1.02;;;21.40;87.30;;;;;;6311047;28;20298;-68
2022/08/06 14:18:48;;;;;;;1.20;1.20;;;21.30;90.20;;;;;;6311018;28;20431;-68
2022/08/06 14:22:15;;;;;;;1.00;1.00;;;21.00;90.00;;;;;;6311076;28;20271;-68
2022/08/06 14:25:20;;;;;;;0.80;0.80;;;20.70;87.30;;;;;;6310918;28;20589;-68
2022/08/06 14:28:27;;;;;;;2.65;0.82;;;20.40;90.10;;;;;;6310863;28;20295;-67
2022/08/06 14:31:33;;;;;;;0.70;0.70;;;20.30;90.90;;;;;;6311162;28;20274;-67
2022/08/06 14:34:59;;;;;;;1.30;0.70;;;20.00;91.10;;;;;;6310110;28;20302;-67
2022/08/06 14:38:12;;;;;;;0.80;0.80;;;19.80;88.90;;;;;;6310915;28;20271;-68
2022/08/06 14:44:57;;;;;;;0.68;0.68;;;19.80;90.60;;;;;;6310064;28;20302;-66
2022/08/06 14:48:03;;;;;;;0.85;0.85;;;19.80;90.90;;;;;;6309772;28;20266;-68
2022/08/06 14:51:13;;;;;;;1.08;1.08;;;19.70;90.60;;;;;;6310836;28;20274;-67
2022/08/06 14:54:27;;;;;;;1.08;1.08;;;19.80;90.50;;;;;;6309870;28;20574;-67
2022/08/06 14:57:37;;;;;;;0.88;0.88;;;19.90;91.60;;;;;;6310535;28;20270;-66
2022/08/06 15:01:02;;;;;;;0.73;0.73;;;19.90;90.90;;;;;;6309201;28;20279;-68
2022/08/06 15:04:19;;;;;;;0.90;0.90;;;19.80;90.70;;;;;;6310074;28;20298;-68
2022/08/06 15:07:30;;;;;;;1.10;1.10;;;19.80;90.30;;;;;;6310455;28;20270;-68
2022/08/06 15:10:45;;;;;;;0.70;0.70;;;19.70;90.10;;;;;;6309850;28;20291;-68
2022/08/06 15:13:52;;;;;;;0.93;0.93;;;19.80;90.10;;;;;;6309875;28;20470;-67
2022/08/06 15:16:57;;;;;;;0.73;0.73;;;19.80;89.20;;;;;;6309859;28;20269;-68
2022/08/06 15:20:22;;;;;;;1.48;0.80;;;19.90;88.70;;;;;;6309388;28;20294;-68
2022/08/06 15:23:31;;;;;;;0.60;0.60;;;19.90;88.00;;;;;;6314141;28;20488;-68
2022/08/06 15:26:56;;;;;;;4.38;0.70;;;20.00;89.00;;;;;;6315290;28;20270;-68
2022/08/06 15:30:02;;;;;;;0.73;0.73;;;19.90;88.90;;;;;;6314365;28;20302;-67
2022/08/06 15:33:12;;;;;;;5.45;1.10;;;19.80;88.20;;;;;;6314742;28;20412;-68
2022/08/06 15:36:17;;;;;;;0.80;0.80;;;19.80;88.80;;;;;;6314822;28;20270;-68
2022/08/06 15:39:24;;;;;;;0.93;0.93;;;19.80;89.20;;;;;;6314291;28;20479;-68
2022/08/06 15:42:50;;;;;;;0.90;0.90;;;19.70;89.40;;;;;;6314266;28;20270;-68
2022/08/06 15:45:58;;;;;;;0.70;0.70;;;19.30;85.90;;;;;;6313808;28;20274;-68
2022/08/06 15:49:06;;;;;;;0.70;0.70;;;19.10;86.90;;;;;;6314094;28;20290;-68
2022/08/06 15:52:16;;;;;;;4.80;4.43;;;18.80;89.70;;;;;;6314958;28;20266;-68
2022/08/06 15:55:23;;;;;;;2.88;2.03;;;18.50;91.00;;;;;;6313954;28;20298;-68
2022/08/06 15:58:35;;;;;;;1.13;1.08;;;18.30;90.80;;;;;;6313956;28;20290;-68
2022/08/06 16:01:42;;;;;;;1.10;1.10;;;18.40;90.90;;;;;;6314222;28;20290;-68
2022/08/06 16:05:08;;;;;;;0.80;0.80;;;18.40;90.50;;;;;;6313770;28;20487;-67
2022/08/06 16:08:15;;;;;;;2.58;0.90;;;18.50;91.00;;;;;;6313549;28;20290;-68
2022/08/06 16:11:40;;;;;;;0.70;0.70;;;18.60;90.70;;;;;;6314147;28;20262;-69
2022/08/06 16:14:56;;;;;;;0.90;0.90;;;18.70;90.90;;;;;;6313943;28;20302;-68
2022/08/06 16:18:03;;;;;;;0.70;0.70;;;18.80;91.50;;;;;;6313328;28;20558;-68
2022/08/06 16:21:28;;;;;;;0.70;0.70;;;18.80;91.50;;;;;;6313656;28;20271;-68
2022/08/06 16:24:38;;;;;;;0.90;0.90;;;18.80;91.10;;;;;;6313330;28;20298;-68
2022/08/06 16:27:46;;;;;;;3.88;3.67;;;18.80;91.40;;;;;;6313579;28;20534;-68
2022/08/06 16:30:52;;;;;;;1.10;1.10;;;18.80;91.30;;;;;;6313253;28;20389;-68
2022/08/06 16:34:17;;;;;;;1.13;1.13;;;18.80;91.70;;;;;;6311884;28;20298;-68
2022/08/06 16:37:33;;;;;;;1.30;1.30;;;18.90;92.30;;;;;;6313723;28;20447;-69
2022/08/06 16:40:44;;;;;;;0.82;0.82;;;18.90;91.80;;;;;;6313211;28;20294;-68
2022/08/06 16:43:53;;;;;;;1.13;1.13;;;19.10;92.20;;;;;;6312720;28;20306;-68
2022/08/06 16:46:58;;;;;;;2.47;1.02;;;19.10;91.30;;;;;;6313405;28;20270;-68
2022/08/06 16:50:10;;;;;;;1.00;1.00;;;18.90;91.00;;;;;;6312552;28;20294;-68
2022/08/06 16:53:31;;;;;;;1.00;1.00;;;18.90;91.10;;;;;;6312864;28;20291;-68
2022/08/06 16:56:56;;;;;;;1.20;0.93;;;19.00;92.10;;;;;;6312733;28;20439;-69
2022/08/06 17:00:05;;;;;;;0.60;0.57;;;19.10;91.40;;;;;;6312716;28;20306;-68
2022/08/06 17:03:17;;;;;;;2.42;2.42;;;19.00;91.00;;;;;;6312772;28;20286;-68
2022/08/06 17:06:42;;;;;;;2.97;2.97;;;19.00;90.90;;;;;;6312914;28;20278;-69
2022/08/06 17:09:47;;;;;;;1.10;1.10;;;18.90;91.50;;;;;;6312312;28;20294;-68